Main page
METAR-TAF:

METAR-TAF

Airports :

Alice Springs, Australia

Alice Springs Airport

latitude: 23-48S, longitude: 133-53E, elevation: 545 m

Current weather observation

The report was made 44 minutes ago, at 02:00 UTC
Wind 15 kt from the Southeast
Temperature 23°C
Humidity 36%
Pressure 1021 hPa
Visibility 10 km or more
no clouds below 1500 m and no cumulonimbus

METAR: YBAS 300200Z 14015KT CAVOK 23/07 Q1021

Time: 12:14 (02:44 UTC)

Forecast

The report was made 3 hours and 42 minutes ago, at 23:02 UTC
Forecast valid from 29 at 23 UTC to 30 at 24 UTC
Wind 16 kt from the South/Southeast with gusts up to 26 kt
Visibility 10 km or more
no clouds below 1500 m and no cumulonimbus
From 30 at 0800 UTC
Wind 12 kt from the Southeast
Visibility 10 km or more
no clouds below 1500 m and no cumulonimbus

TAF: YBAS 292302Z 2923/3024 15016G26KT CAVOK FM300800 14012KT CAVOK

Weather observations and forecasts of more than 4000 airports (METAR and TAF reports).

The available stations are represented by yellow and red dots on the map.

Hover mouse over dot to see the name of the station.

Then click to see weather observations and forecasts.

To change the map : click on the green buttons with a black cross to zoom in, on the green button with a dash to zoom out, or on the green arrows for adjacent maps.


METAR-TAF: